Cabo San Lucas, BCS, Mexico
Current Conditions -  °F | °C
As of 9:45 PM on Sunday 23 Nov 2014 (Local Time) from MMSL Reporting Station
Clear Clear  
Wind Chill: 68°   Ceiling: Unl
Heat Index: 68°   Visibility: 7mi
Dew Point: 61°   Wind: 9mph
Humidity: 78%   Direction: 340°NNW
Pressure: 30.02"   Gusts: NA
Location:  22.88°N, 109.9°W
Report Text: MMSL 240445Z 34008KT 7SM SKC 20/16 A3002 RMK ISOL CI MSGTX MMSD
Loading
Personal Weather Stations






























Interactive Weather Map New forecast layout! Learn more

10-Day Weather Forecast

Advertisements
Track Severe Weather on mobile